Time;durP1;ratioP1;P1;durP2;ratioP2;P2;SDS_P1;SDS_P2;PMS_P1;PMS_P2;Temp;Humidity;BMP_temperature;BMP_pressure;BME280_temperature;BME280_humidity;BME280_pressure;Samples;Min_cycle;Max_cycle;Signal;HPM_P1;HPM_P2
2022/08/23 08:59:47;;;;;;;3.30;2.10;;;;;;;26.68;38.77;98898.41;5101817;27;20386;-66
2022/08/23 09:02:18;;;;;;;4.38;2.25;;;;;;;26.37;38.49;98908.09;5068569;28;20052;-69
2022/08/23 09:05:07;;;;;;;2.60;2.25;;;;;;;26.03;40.00;98902.88;5068362;28;20071;-65
2022/08/23 09:07:44;;;;;;;2.72;1.50;;;;;;;25.94;40.68;98900.03;5051888;28;20041;-67
2022/08/23 09:10:29;;;;;;;1.08;1.00;;;;;;;25.91;40.48;98893.28;5051696;28;20047;-68
2022/08/23 09:13:31;;;;;;;1.75;1.23;;;;;;;25.92;40.47;98894.09;5068147;28;20110;-68
2022/08/23 09:16:16;;;;;;;1.40;1.00;;;;;;;26.00;39.84;98892.63;5067884;28;20147;-68
2022/08/23 09:18:44;;;;;;;1.33;1.23;;;;;;;26.06;39.69;98895.00;5067698;28;20098;-68
2022/08/23 09:21:13;;;;;;;1.75;1.38;;;;;;;26.13;39.49;98886.50;5067852;28;20073;-68
2022/08/23 09:23:45;;;;;;;1.10;0.68;;;;;;;26.22;39.24;98883.94;5068151;28;20049;-68
2022/08/23 09:26:21;;;;;;;2.38;1.27;;;;;;;26.35;38.89;98888.63;5052207;28;20459;-68
2022/08/23 09:28:58;;;;;;;1.83;1.20;;;;;;;26.46;38.54;98884.69;5067830;28;20075;-67
2022/08/23 09:31:46;;;;;;;1.63;1.10;;;;;;;26.57;38.19;98875.28;5067621;28;20136;-69
2022/08/23 09:34:37;;;;;;;1.02;0.88;;;;;;;26.71;37.53;98880.75;5067518;28;20076;-68
2022/08/23 09:37:10;;;;;;;0.65;0.65;;;;;;;26.84;37.65;98873.78;5051534;28;20454;-68
2022/08/23 09:39:40;;;;;;;1.65;1.10;;;;;;;27.01;37.25;98876.72;5067486;28;20106;-68
2022/08/23 09:42:34;;;;;;;0.80;0.80;;;;;;;27.16;36.72;98875.66;5067510;28;20474;-69
2022/08/23 09:45:26;;;;;;;1.55;0.95;;;;;;;27.27;36.42;98870.84;5067335;28;20054;-69
2022/08/23 09:47:57;;;;;;;1.40;1.30;;;;;;;27.36;35.97;98875.28;5055199;28;20052;-69
2022/08/23 09:50:35;;;;;;;1.08;0.98;;;;;;;27.46;35.44;98873.47;5048757;28;20056;-69
2022/08/23 09:53:07;;;;;;;1.58;1.15;;;;;;;27.58;35.27;98871.03;5048554;28;20108;-69
2022/08/23 09:55:40;;;;;;;1.00;0.90;;;;;;;27.69;34.75;98869.75;5047832;28;20048;-69
2022/08/23 09:58:37;;;;;;;1.45;1.00;;;;;;;27.80;34.44;98868.44;5047157;28;20037;-69
2022/08/23 10:01:17;;;;;;;1.42;1.10;;;;;;;27.93;33.98;98868.72;5045630;28;20053;-69
2022/08/23 10:04:04;;;;;;;1.00;0.93;;;;;;;28.09;33.72;98865.38;5047012;28;20076;-68
2022/08/23 10:06:33;;;;;;;1.30;1.00;;;;;;;28.23;33.26;98867.22;5046738;28;20057;-68
2022/08/23 10:09:05;;;;;;;1.67;0.90;;;;;;;28.28;31.96;98864.38;5045080;28;20071;-70
2022/08/23 10:11:45;;;;;;;2.65;1.00;;;;;;;28.30;31.80;98856.75;5034008;28;20417;-70
2022/08/23 10:14:18;;;;;;;1.45;0.90;;;;;;;28.33;31.18;98862.38;5034330;28;20133;-68
2022/08/23 10:16:57;;;;;;;1.00;0.88;;;;;;;28.39;31.31;98861.16;5053349;28;20523;-69
2022/08/23 10:19:52;;;;;;;1.10;0.70;;;;;;;28.46;30.93;98852.56;5053552;28;20079;-69
2022/08/23 10:22:25;;;;;;;1.58;0.80;;;;;;;28.54;30.38;98861.91;5053839;28;20056;-70
2022/08/23 10:25:29;;;;;;;0.40;0.40;;;;;;;28.62;30.43;98856.53;5053782;28;20080;-70
2022/08/23 10:31:27;;;;;;;1.85;1.42;;;;;;;28.85;30.52;98849.13;5033251;28;20507;-69
2022/08/23 10:34:26;;;;;;;1.42;1.33;;;;;;;28.96;30.44;98852.41;5053460;28;20546;-71
2022/08/23 10:37:07;;;;;;;1.30;1.20;;;;;;;29.02;30.12;98853.88;5053262;28;20102;-70
2022/08/23 10:39:43;;;;;;;1.30;1.20;;;;;;;29.02;29.99;98845.72;5053112;28;20055;-70
2022/08/23 10:42:20;;;;;;;3.30;1.60;;;;;;;28.98;29.68;98850.19;5037456;28;20404;-70
2022/08/23 10:44:59;;;;;;;1.30;1.20;;;;;;;28.99;29.70;98838.19;5053041;28;20504;-71
2022/08/23 10:47:40;;;;;;;1.70;1.60;;;;;;;29.06;29.61;98835.00;5053214;28;20061;-72
2022/08/23 10:50:19;;;;;;;1.53;1.33;;;;;;;29.17;29.34;98832.81;5053689;28;20076;-70
2022/08/23 10:52:54;;;;;;;1.75;1.20;;;;;;;29.27;29.17;98827.91;5053303;28;20083;-70
2022/08/23 10:56:04;;;;;;;1.00;0.90;;;;;;;29.36;29.06;98827.94;5052966;28;20068;-71
2022/08/23 10:58:46;;;;;;;1.33;1.20;;;;;;;29.43;29.09;98825.53;5037335;28;20131;-72
2022/08/23 11:01:19;;;;;;;2.90;1.80;;;;;;;29.47;28.89;98821.06;5052759;28;20522;-70
2022/08/23 11:04:03;;;;;;;2.40;1.60;;;;;;;29.51;28.31;98813.06;5053082;28;20515;-70
2022/08/23 11:06:50;;;;;;;1.25;0.90;;;;;;;29.42;28.83;98818.50;5052400;28;20056;-71
2022/08/23 11:09:17;;;;;;;1.65;1.20;;;;;;;29.37;28.45;98814.00;5052573;28;20164;-67
2022/08/23 11:11:47;;;;;;;2.75;1.75;;;;;;;29.47;28.23;98806.63;5052338;28;20067;-67
2022/08/23 11:14:36;;;;;;;1.33;1.20;;;;;;;29.55;28.50;98803.94;5052481;28;20415;-69
2022/08/23 11:17:07;;;;;;;1.17;1.08;;;;;;;29.70;28.46;98810.88;5053626;28;20049;-70
2022/08/23 11:19:57;;;;;;;1.73;1.20;;;;;;;29.80;28.31;98807.88;5053996;28;20408;-71
2022/08/23 11:22:29;;;;;;;1.50;1.40;;;;;;;29.91;27.75;98807.53;5052719;28;20072;-70
2022/08/23 11:25:25;;;;;;;1.27;1.17;;;;;;;30.00;27.91;98816.50;5036727;28;20081;-69
2022/08/23 11:28:22;;;;;;;1.75;1.30;;;;;;;30.10;27.59;98810.75;5052627;28;20060;-68
2022/08/23 11:30:55;;;;;;;6.82;1.95;;;;;;;30.23;27.35;98811.72;5053622;28;20037;-70
2022/08/23 11:33:41;;;;;;;1.60;1.50;;;;;;;30.29;27.36;98814.00;5052701;28;20055;-70
2022/08/23 11:36:07;;;;;;;2.15;1.67;;;;;;;30.15;26.99;98807.06;5052250;28;20049;-69
2022/08/23 11:38:42;;;;;;;1.50;1.40;;;;;;;30.07;27.16;98811.38;5051953;28;20072;-69
2022/08/23 11:41:27;;;;;;;1.52;1.42;;;;;;;30.06;27.24;98804.34;5052163;28;20456;-69
2022/08/23 11:43:55;;;;;;;1.10;1.00;;;;;;;30.05;27.60;98805.47;5051892;28;20088;-69
2022/08/23 11:46:22;;;;;;;1.30;1.10;;;;;;;30.05;27.48;98814.44;5031172;28;20599;-70
2022/08/23 11:48:53;;;;;;;1.27;1.17;;;;;;;30.09;27.21;98806.44;5049060;28;20128;-69
2022/08/23 11:51:31;;;;;;;1.60;1.50;;;;;;;30.10;27.23;98799.84;5051804;28;20041;-69
2022/08/23 11:54:22;;;;;;;1.95;1.60;;;;;;;30.15;27.47;98798.88;5053125;28;20049;-69
2022/08/23 11:56:59;;;;;;;1.63;1.40;;;;;;;30.20;27.05;98796.00;5051389;28;20048;-69
2022/08/23 11:59:34;;;;;;;1.88;1.40;;;;;;;30.31;26.95;98803.53;5052620;28;20048;-69
2022/08/23 12:02:39;;;;;;;2.65;1.58;;;;;;;30.41;26.26;98793.41;5052599;28;20041;-68
2022/08/23 12:05:20;;;;;;;2.40;1.88;;;;;;;30.56;26.22;98790.97;5052420;28;20084;-69
2022/08/23 12:07:52;;;;;;;1.40;1.30;;;;;;;30.70;26.13;98790.78;5052582;28;20063;-68
2022/08/23 12:10:42;;;;;;;2.97;1.30;;;;;;;30.90;25.95;98792.00;5051156;28;20041;-68
2022/08/23 12:13:18;;;;;;;1.55;0.90;;;;;;;31.15;25.94;98779.41;5052425;28;20065;-68
2022/08/23 12:16:17;;;;;;;1.13;1.02;;;;;;;31.40;25.71;98783.16;5052610;28;20045;-69
2022/08/23 12:18:52;;;;;;;1.17;1.08;;;;;;;31.65;25.34;98780.56;5028350;28;20059;-69
2022/08/23 12:21:48;;;;;;;1.40;1.10;;;;;;;31.92;24.94;98779.25;5052503;28;20521;-68
2022/08/23 12:24:21;;;;;;;1.23;1.10;;;;;;;31.93;24.84;98773.47;5050997;28;20060;-68
2022/08/23 12:27:20;;;;;;;1.30;1.20;;;;;;;31.76;24.75;98777.13;5034125;28;20048;-68
2022/08/23 12:30:21;;;;;;;1.48;1.38;;;;;;;31.48;24.83;98781.50;5052052;28;20489;-68
2022/08/23 12:33:01;;;;;;;1.23;1.13;;;;;;;31.32;25.45;98776.59;5044822;28;20053;-68
2022/08/23 12:35:49;;;;;;;1.40;1.05;;;;;;;31.24;25.44;98773.91;5050771;28;20063;-68
2022/08/23 12:38:44;;;;;;;1.05;0.90;;;;;;;31.09;25.02;98775.25;5051786;28;20049;-68
2022/08/23 12:41:28;;;;;;;0.80;0.80;;;;;;;30.95;25.24;98774.69;5050937;28;20443;-69
2022/08/23 12:43:59;;;;;;;1.08;0.98;;;;;;;30.86;25.20;98774.69;5051921;28;20049;-68
2022/08/23 12:46:40;;;;;;;1.52;1.30;;;;;;;30.81;25.05;98767.50;5051245;28;20039;-68
2022/08/23 12:49:20;;;;;;;2.47;1.42;;;;;;;30.79;25.16;98777.94;5050632;28;20049;-68
2022/08/23 12:51:48;;;;;;;0.95;0.95;;;;;;;30.82;25.09;98771.84;5050753;28;20056;-68
2022/08/23 12:54:19;;;;;;;1.20;1.10;;;;;;;30.85;24.83;98770.38;5051877;28;20159;-69
2022/08/23 12:56:48;;;;;;;1.20;1.10;;;;;;;30.86;24.77;98761.03;5051721;28;20381;-68
2022/08/23 12:59:58;;;;;;;1.05;0.93;;;;;;;30.87;24.91;98772.78;5050378;28;20053;-69
2022/08/23 13:02:52;;;;;;;1.10;1.00;;;;;;;30.91;25.02;98773.75;5029612;28;20056;-69
2022/08/23 13:05:30;;;;;;;0.65;0.65;;;;;;;30.96;25.24;98763.44;5029554;28;20056;-69
2022/08/23 13:07:59;;;;;;;1.00;1.00;;;;;;;30.99;24.78;98759.25;5046826;28;20059;-70
2022/08/23 13:10:26;;;;;;;1.33;1.05;;;;;;;30.96;25.01;98771.63;5051694;28;20106;-69
2022/08/23 13:12:53;;;;;;;1.40;1.30;;;;;;;30.93;24.74;98763.28;5051681;28;20041;-70
2022/08/23 13:15:48;;;;;;;1.42;1.27;;;;;;;30.84;24.47;98760.59;5051320;28;20040;-69
2022/08/23 13:18:28;;;;;;;1.35;1.25;;;;;;;30.78;24.99;98761.88;5044197;28;20053;-69
2022/08/23 13:21:23;;;;;;;1.38;1.27;;;;;;;30.74;25.23;98753.56;5051675;28;20037;-69
2022/08/23 13:23:55;;;;;;;1.55;1.40;;;;;;;30.77;24.89;98765.75;5051797;28;20400;-69
2022/08/23 13:26:35;;;;;;;;;;;;;;;30.72;25.24;98760.44;5051676;28;20076;-68
2022/08/23 13:29:12;;;;;;;1.10;1.00;;;;;;;30.73;24.82;98759.34;5051848;28;20299;-68
2022/08/23 13:32:01;;;;;;;1.13;1.02;;;;;;;30.76;24.87;98756.75;5051335;28;20045;-68
2022/08/23 13:34:39;;;;;;;1.00;0.90;;;;;;;30.81;24.74;98755.78;5053091;28;20454;-70
2022/08/23 13:37:27;;;;;;;1.38;1.13;;;;;;;30.80;25.18;98754.97;5053663;28;20075;-70
2022/08/23 13:40:18;;;;;;;1.58;1.48;;;;;;;30.77;24.52;98758.34;5053705;28;20041;-70
2022/08/23 13:42:48;;;;;;;1.50;1.40;;;;;;;30.74;24.75;98752.75;5053851;28;20069;-69
2022/08/23 13:45:43;;;;;;;1.60;1.50;;;;;;;30.74;25.00;98756.31;5055596;28;20463;-71
2022/08/23 13:48:20;;;;;;;0.90;0.90;;;;;;;30.74;24.55;98753.56;5049925;28;20428;-70
2022/08/23 13:50:46;;;;;;;1.65;1.00;;;;;;;30.73;24.50;98751.97;5055082;28;20037;-70
2022/08/23 13:53:13;;;;;;;1.75;0.98;;;;;;;30.74;24.91;98750.84;5055917;28;20041;-70
2022/08/23 13:55:54;;;;;;;0.75;0.75;;;;;;;30.84;24.54;98755.94;5055742;28;20128;-70
2022/08/23 13:58:32;;;;;;;0.50;0.50;;;;;;;30.90;24.41;98753.00;5055455;28;20052;-70
2022/08/23 14:01:00;;;;;;;0.45;0.45;;;;;;;30.96;24.62;98757.97;5055898;28;20056;-69
2022/08/23 14:03:30;;;;;;;0.68;0.60;;;;;;;31.01;24.25;98759.72;5055524;28;20072;-69
2022/08/23 14:05:56;;;;;;;0.60;0.60;;;;;;;31.05;24.60;98760.66;5055600;28;20060;-70
2022/08/23 14:08:23;;;;;;;1.73;1.63;;;;;;;31.07;24.30;98756.47;5055371;28;20511;-70
2022/08/23 14:10:50;;;;;;;2.25;2.00;;;;;;;31.08;24.71;98751.81;5055679;28;20051;-71
2022/08/23 14:13:19;;;;;;;1.40;1.30;;;;;;;31.11;24.40;98755.78;5055513;28;20041;-71
2022/08/23 14:15:46;;;;;;;1.90;1.70;;;;;;;31.13;24.41;98753.56;5055159;28;20041;-70
2022/08/23 14:18:24;;;;;;;1.73;1.63;;;;;;;31.11;24.40;98756.63;5053968;28;20048;-70
2022/08/23 14:20:51;;;;;;;1.67;1.58;;;;;;;31.07;24.23;98755.69;5055139;28;20041;-69
2022/08/23 14:23:17;;;;;;;2.13;1.73;;;;;;;30.98;24.62;98752.16;5055049;28;20052;-69
2022/08/23 14:25:44;;;;;;;1.33;1.25;;;;;;;30.98;24.19;98752.97;5055323;28;20052;-70
2022/08/23 14:28:12;;;;;;;1.73;1.60;;;;;;;30.98;24.54;98743.97;5054837;28;20119;-70
2022/08/23 14:30:39;;;;;;;2.67;1.52;;;;;;;31.00;24.37;98747.19;5054926;28;20040;-70
2022/08/23 14:33:05;;;;;;;2.13;1.92;;;;;;;31.00;24.37;98745.25;5037182;28;20500;-70
2022/08/23 14:35:32;;;;;;;1.80;1.67;;;;;;;31.00;24.59;98748.00;5053069;28;20049;-68
2022/08/23 14:37:59;;;;;;;2.17;1.92;;;;;;;31.01;24.35;98752.31;5054152;28;20118;-68
2022/08/23 14:40:29;;;;;;;1.67;1.58;;;;;;;31.02;24.15;98750.38;5054287;28;20052;-69
2022/08/23 14:42:56;;;;;;;1.73;1.63;;;;;;;31.04;24.60;98739.94;5053298;28;20045;-68
2022/08/23 14:45:22;;;;;;;1.70;1.60;;;;;;;31.04;24.18;98740.75;5054364;28;20033;-69
2022/08/23 14:47:49;;;;;;;1.67;1.58;;;;;;;31.03;24.01;98744.63;5054424;28;20045;-69
2022/08/23 14:50:15;;;;;;;1.63;1.25;;;;;;;31.03;24.02;98747.34;5054539;28;20515;-68
2022/08/23 14:52:45;;;;;;;2.03;1.25;;;;;;;31.07;24.10;98745.56;5053435;28;20612;-68
2022/08/23 14:55:13;;;;;;;1.73;1.30;;;;;;;31.07;24.05;98745.56;5054224;28;20056;-69
2022/08/23 14:57:40;;;;;;;2.33;1.92;;;;;;;31.06;23.94;98743.13;5053964;28;20045;-69
2022/08/23 15:00:12;;;;;;;2.58;2.30;;;;;;;31.02;24.33;98745.72;5053907;28;20480;-68
2022/08/23 15:02:43;;;;;;;2.20;2.00;;;;;;;31.01;23.97;98746.06;5053957;28;20051;-69
2022/08/23 15:05:11;;;;;;;3.08;2.75;;;;;;;31.00;24.25;98742.53;5053643;28;20045;-69
2022/08/23 15:07:37;;;;;;;2.72;2.53;;;;;;;30.95;24.42;98742.72;5053631;28;20041;-69
2022/08/23 15:10:05;;;;;;;2.83;2.30;;;;;;;30.93;24.50;98749.63;5053656;28;20037;-68
2022/08/23 15:12:31;;;;;;;2.70;2.33;;;;;;;30.90;24.10;98742.09;5053461;28;20501;-68
2022/08/23 15:15:19;;;;;;;2.28;1.83;;;;;;;30.87;24.29;98740.84;5053109;28;20062;-68
2022/08/23 15:17:52;;;;;;;1.63;1.42;;;;;;;30.85;24.23;98745.81;5053091;28;20072;-69
2022/08/23 15:20:21;;;;;;;2.10;1.90;;;;;;;30.81;24.20;98747.59;5053437;28;20047;-68
2022/08/23 15:22:47;;;;;;;1.90;1.75;;;;;;;30.78;24.65;98742.78;5053426;28;20055;-68
2022/08/23 15:25:21;;;;;;;1.30;1.20;;;;;;;30.76;24.44;98740.41;5052164;28;20053;-69
2022/08/23 15:27:50;;;;;;;1.85;1.65;;;;;;;30.76;24.51;98745.84;5053155;28;20460;-69
2022/08/23 15:30:17;;;;;;;1.75;1.65;;;;;;;30.68;24.73;98735.75;5053207;28;20047;-69
2022/08/23 15:32:43;;;;;;;2.00;1.80;;;;;;;30.60;24.59;98739.31;5052120;28;20519;-69
2022/08/23 15:35:23;;;;;;;2.90;1.90;;;;;;;30.55;24.61;98742.22;5052094;28;20056;-68
2022/08/23 15:37:51;;;;;;;2.70;1.75;;;;;;;30.49;24.81;98741.56;5053154;28;20055;-68
2022/08/23 15:40:18;;;;;;;1.40;1.30;;;;;;;30.47;25.03;98738.38;5053142;28;20049;-69
2022/08/23 15:42:44;;;;;;;2.10;1.90;;;;;;;30.47;24.92;98740.31;5053328;28;20051;-69
2022/08/23 15:45:11;;;;;;;2.25;1.98;;;;;;;30.44;24.87;98739.03;5052775;28;20507;-69
2022/08/23 15:47:53;;;;;;;1.88;1.70;;;;;;;30.43;24.86;98739.38;5052497;28;20404;-69
2022/08/23 15:50:26;;;;;;;1.92;1.67;;;;;;;30.41;25.06;98736.16;5052907;28;20484;-69
2022/08/23 15:52:53;;;;;;;;;;;;;;;30.40;24.97;98742.72;5053819;28;20542;-69
2022/08/23 15:55:19;;;;;;;3.72;2.97;;;;;;;30.38;25.46;98736.81;5053203;28;20402;-69
2022/08/23 15:57:50;;;;;;;3.25;2.90;;;;;;;30.35;25.41;98738.25;5053003;28;20060;-69
2022/08/23 16:00:20;;;;;;;2.95;2.65;;;;;;;30.33;25.00;98743.22;5053098;28;20048;-69
2022/08/23 16:02:47;;;;;;;2.58;2.20;;;;;;;30.31;25.40;98740.03;5053184;28;20672;-69
2022/08/23 16:05:35;;;;;;;2.58;1.85;;;;;;;30.28;25.43;98746.91;5051881;28;20049;-69
2022/08/23 16:08:03;;;;;;;2.53;1.85;;;;;;;30.29;25.56;98745.00;5051916;28;20052;-68
2022/08/23 16:10:29;;;;;;;1.95;1.80;;;;;;;30.25;25.32;98739.41;5052520;28;20041;-68
2022/08/23 16:12:56;;;;;;;2.08;1.88;;;;;;;30.24;25.69;98737.00;5051192;28;20052;-69
2022/08/23 16:15:22;;;;;;;2.10;1.80;;;;;;;30.21;25.54;98740.34;5073129;22;20043;-67
2022/08/23 16:17:49;;;;;;;1.65;1.55;;;;;;;30.17;25.81;98734.78;5056422;28;20052;-66
2022/08/23 16:20:16;;;;;;;1.60;1.50;;;;;;;30.15;25.65;98739.75;5052311;28;20037;-67
2022/08/23 16:22:42;;;;;;;2.22;1.63;;;;;;;30.14;25.63;98738.13;5052428;28;20064;-66
2022/08/23 16:25:09;;;;;;;2.25;1.90;;;;;;;30.12;25.31;98740.34;5052448;28;20427;-66
2022/08/23 16:27:36;;;;;;;3.00;1.95;;;;;;;30.09;25.58;98739.09;5031516;28;20476;-67
2022/08/23 16:30:04;;;;;;;2.20;1.98;;;;;;;30.07;25.76;98740.53;5032199;28;20116;-66
2022/08/23 16:32:31;;;;;;;1.73;1.63;;;;;;;30.06;25.92;98742.44;5031029;28;20047;-66
2022/08/23 16:34:58;;;;;;;1.75;1.60;;;;;;;30.04;25.49;98736.50;5032387;28;20128;-66
2022/08/23 16:37:24;;;;;;;2.13;1.92;;;;;;;30.00;25.84;98735.56;5031076;28;20049;-67
2022/08/23 16:39:51;;;;;;;2.60;1.45;;;;;;;29.99;25.87;98735.88;5030832;28;20046;-67
2022/08/23 16:42:18;;;;;;;1.63;1.52;;;;;;;29.95;25.52;98738.44;5031158;28;20054;-67
2022/08/23 16:44:45;;;;;;;1.75;1.65;;;;;;;29.95;25.48;98743.91;5047598;28;20049;-67
2022/08/23 16:47:13;;;;;;;1.73;1.60;;;;;;;29.92;25.62;98739.09;5031750;28;20436;-67
2022/08/23 16:49:41;;;;;;;2.63;1.60;;;;;;;29.90;25.78;98743.28;5032334;28;20068;-67
2022/08/23 16:52:12;;;;;;;1.85;1.40;;;;;;;29.88;26.17;98740.06;5032123;28;20045;-67
2022/08/23 16:54:38;;;;;;;1.35;1.25;;;;;;;29.86;25.96;98746.63;5031952;28;20053;-67
2022/08/23 16:57:05;;;;;;;2.33;1.73;;;;;;;29.84;25.76;98740.72;5030541;28;20045;-67
2022/08/23 16:59:33;;;;;;;3.00;2.75;;;;;;;29.80;26.44;98739.75;5031927;28;20774;-67
2022/08/23 17:02:06;;;;;;;3.05;2.78;;;;;;;29.76;26.29;98746.97;5032301;28;20076;-67
2022/08/23 17:04:36;;;;;;;2.40;2.20;;;;;;;29.73;26.26;98742.16;5031014;28;20045;-67
2022/08/23 17:07:03;;;;;;;1.60;1.50;;;;;;;29.71;26.13;98743.59;5031736;28;20504;-67
2022/08/23 17:09:30;;;;;;;1.85;1.52;;;;;;;29.69;26.14;98743.91;5032026;28;20076;-67
2022/08/23 17:11:57;;;;;;;1.67;1.58;;;;;;;29.68;26.65;98745.03;5032177;28;20158;-67
2022/08/23 17:14:25;;;;;;;1.42;1.33;;;;;;;29.67;26.41;98740.69;5030691;28;20056;-66
2022/08/23 17:16:51;;;;;;;1.20;1.10;;;;;;;29.65;26.79;98751.13;5031814;28;20045;-66
2022/08/23 17:19:18;;;;;;;1.13;1.10;;;;;;;29.73;26.56;98753.06;5032118;28;20060;-66
2022/08/23 17:21:47;;;;;;;2.00;1.70;;;;;;;29.95;26.33;98754.00;5037108;28;20475;-67
2022/08/23 17:24:14;;;;;;;2.35;1.95;;;;;;;30.09;26.22;98741.81;5034733;28;20108;-66
2022/08/23 17:26:41;;;;;;;2.70;2.30;;;;;;;30.24;26.30;98751.41;5035989;28;20041;-66
2022/08/23 17:29:08;;;;;;;1.40;1.30;;;;;;;30.37;26.12;98754.28;5034905;28;20103;-66
2022/08/23 17:31:36;;;;;;;3.08;1.75;;;;;;;30.45;26.45;98753.47;5034863;28;20049;-67
2022/08/23 17:34:05;;;;;;;2.13;1.70;;;;;;;30.47;26.37;98752.03;5036018;28;20049;-66
2022/08/23 17:36:40;;;;;;;2.70;2.15;;;;;;;30.46;26.32;98758.59;5035628;28;20059;-66
2022/08/23 17:39:11;;;;;;;2.35;1.90;;;;;;;30.46;26.02;98764.06;5035861;28;20100;-67
2022/08/23 17:41:39;;;;;;;4.13;3.13;;;;;;;30.40;26.26;98762.63;5034511;28;20133;-67
2022/08/23 17:44:10;;;;;;;;;;;;;;;30.25;26.36;98763.94;5036620;28;20129;-66
2022/08/23 17:46:39;;;;;;;2.80;2.03;;;;;;;30.10;26.26;98764.41;5042280;28;19921;-67
2022/08/23 17:49:07;;;;;;;2.72;1.85;;;;;;;29.92;26.81;98774.50;5015478;28;20061;-65
2022/08/23 17:51:35;;;;;;;2.67;1.70;;;;;;;29.76;26.79;98776.09;5030890;28;20046;-66
2022/08/23 17:54:03;;;;;;;3.05;2.42;;;;;;;29.58;27.33;98770.66;4998224;28;20076;-66
2022/08/23 17:56:29;;;;;;;4.80;3.70;;;;;;;29.41;27.74;98770.59;5015624;28;20084;-66
2022/08/23 17:58:56;;;;;;;7.97;6.50;;;;;;;29.25;28.06;98770.25;5014256;28;20042;-65
2022/08/23 18:01:23;;;;;;;4.13;3.72;;;;;;;29.09;28.19;98780.75;5015144;28;20057;-64
2022/08/23 18:03:50;;;;;;;3.40;3.10;;;;;;;28.92;28.46;98788.03;5015238;28;20049;-65
2022/08/23 18:06:17;;;;;;;3.22;2.40;;;;;;;28.78;29.27;98788.13;5015043;28;20116;-65
2022/08/23 18:08:45;;;;;;;2.92;2.38;;;;;;;28.64;29.34;98791.72;5014230;28;20050;-65
2022/08/23 18:11:12;;;;;;;2.90;2.50;;;;;;;28.48;29.79;98793.25;5015198;28;20445;-64
2022/08/23 18:13:39;;;;;;;2.00;1.70;;;;;;;28.33;29.87;98799.03;5015047;28;20073;-65
2022/08/23 18:16:06;;;;;;;1.75;1.65;;;;;;;28.20;30.42;98791.75;5029083;28;20053;-64
2022/08/23 18:18:33;;;;;;;1.85;1.75;;;;;;;28.06;30.60;98798.03;5018509;28;20046;-66
2022/08/23 18:21:04;;;;;;;2.83;2.20;;;;;;;27.92;30.96;98799.19;5014964;28;20049;-66
2022/08/23 18:23:31;;;;;;;2.28;2.08;;;;;;;27.77;31.42;98803.06;5013883;28;20054;-66
2022/08/23 18:26:03;;;;;;;2.40;1.75;;;;;;;27.62;31.76;98804.97;5013723;28;20041;-65
2022/08/23 18:28:31;;;;;;;3.10;2.70;;;;;;;27.49;32.11;98803.09;5013872;28;20065;-64
2022/08/23 18:31:02;;;;;;;2.90;2.10;;;;;;;27.37;32.31;98813.66;5012947;28;20045;-65
2022/08/23 18:33:30;;;;;;;2.00;1.90;;;;;;;27.24;32.53;98814.47;5014997;28;20131;-64
2022/08/23 18:36:14;;;;;;;2.55;2.03;;;;;;;27.11;32.77;98814.16;5014379;28;20600;-65
2022/08/23 18:38:40;;;;;;;2.40;2.20;;;;;;;26.99;33.06;98818.44;5013621;28;20096;-65
2022/08/23 18:41:07;;;;;;;3.30;2.95;;;;;;;26.87;33.34;98824.34;5014541;28;20048;-65
2022/08/23 18:43:34;;;;;;;2.83;2.35;;;;;;;26.76;33.74;98829.16;5014767;28;20787;-65
2022/08/23 18:46:04;;;;;;;2.47;2.28;;;;;;;26.67;33.90;98825.53;5028365;28;20115;-65
2022/08/23 18:48:31;;;;;;;2.67;2.47;;;;;;;26.57;34.00;98831.09;5034558;28;20044;-66
2022/08/23 18:50:58;;;;;;;3.05;2.65;;;;;;;26.48;34.64;98833.69;5033395;28;20056;-66
2022/08/23 18:53:25;;;;;;;3.67;2.90;;;;;;;26.38;34.88;98841.97;5033653;28;20071;-66
2022/08/23 18:55:53;;;;;;;2.92;2.50;;;;;;;26.27;35.18;98835.91;5033257;28;20482;-67
2022/08/23 18:58:20;;;;;;;2.83;2.53;;;;;;;26.18;35.10;98852.00;5033057;28;20584;-65
2022/08/23 19:00:48;;;;;;;2.67;2.33;;;;;;;26.09;35.18;98851.06;5033421;28;20045;-64
2022/08/23 19:03:16;;;;;;;2.88;2.60;;;;;;;25.98;35.37;98857.72;5033144;28;20520;-66
2022/08/23 19:05:43;;;;;;;3.10;2.50;;;;;;;25.90;35.67;98852.97;5033156;28;20461;-65
2022/08/23 19:08:11;;;;;;;2.42;2.20;;;;;;;25.81;36.03;98862.84;5034002;28;20525;-65
2022/08/23 19:10:40;;;;;;;2.00;1.80;;;;;;;25.72;36.19;98857.25;5032902;28;20516;-65
2022/08/23 19:13:07;;;;;;;1.92;1.83;;;;;;;25.66;36.56;98852.97;5033918;28;20042;-66
2022/08/23 19:15:36;;;;;;;1.50;1.40;;;;;;;25.60;36.59;98862.28;5032497;28;21414;-65
2022/08/23 19:18:03;;;;;;;1.67;1.58;;;;;;;25.55;36.59;98860.41;5033727;28;20041;-66
2022/08/23 19:20:29;;;;;;;2.30;2.10;;;;;;;25.49;36.91;98869.69;5033756;28;20049;-65
2022/08/23 19:22:56;;;;;;;2.88;2.28;;;;;;;25.42;37.17;98875.44;5033788;28;20121;-66
2022/08/23 19:25:24;;;;;;;2.83;2.28;;;;;;;25.35;37.43;98879.59;5033726;28;20069;-65
2022/08/23 19:27:51;;;;;;;3.08;2.38;;;;;;;25.26;37.64;98884.03;5032553;28;20580;-66
2022/08/23 19:30:17;;;;;;;2.63;2.42;;;;;;;25.17;37.84;98881.13;5033410;28;20041;-66
2022/08/23 19:32:45;;;;;;;2.40;1.95;;;;;;;25.10;37.80;98886.88;5035519;28;20064;-65
2022/08/23 19:35:13;;;;;;;3.00;2.78;;;;;;;25.03;37.95;98891.81;5032982;28;20050;-64
2022/08/23 19:37:39;;;;;;;15.18;12.65;;;;;;;24.95;38.12;98887.81;5036154;28;20097;-65
2022/08/23 19:40:06;;;;;;;7.63;6.82;;;;;;;24.89;38.51;98901.66;5034863;28;20576;-65
2022/08/23 19:42:35;;;;;;;4.90;4.32;;;;;;;24.85;38.15;98897.91;5032006;28;20201;-64
2022/08/23 19:45:04;;;;;;;3.70;3.40;;;;;;;24.81;38.63;98900.38;5033408;28;20041;-65
2022/08/23 19:47:31;;;;;;;3.47;3.17;;;;;;;24.71;38.58;98906.69;5032900;28;20054;-67
2022/08/23 19:49:58;;;;;;;2.97;2.72;;;;;;;24.64;38.64;98908.88;5033028;28;20041;-64
2022/08/23 19:52:25;;;;;;;2.05;1.90;;;;;;;24.59;38.86;98902.72;5048598;28;20482;-65
2022/08/23 19:54:52;;;;;;;2.22;2.03;;;;;;;24.50;38.89;98907.13;5031783;28;20045;-65
2022/08/23 19:57:19;;;;;;;4.10;2.40;;;;;;;24.40;39.07;98905.28;5031626;28;20552;-65
2022/08/23 19:59:45;;;;;;;2.30;2.10;;;;;;;24.28;38.93;98900.19;5033816;28;20112;-66
2022/08/23 20:02:13;;;;;;;2.60;2.35;;;;;;;24.20;39.33;98900.78;5033227;28;20480;-66
2022/08/23 20:04:39;;;;;;;2.25;2.05;;;;;;;24.14;39.54;98907.31;5033367;28;20092;-65
2022/08/23 20:07:06;;;;;;;2.10;1.90;;;;;;;24.12;39.89;98907.56;5032104;28;20515;-67
2022/08/23 20:09:33;;;;;;;1.40;1.30;;;;;;;24.10;39.79;98917.84;5032112;28;20120;-65
2022/08/23 20:12:01;;;;;;;1.83;1.73;;;;;;;24.07;39.83;98915.69;5033238;28;20059;-65
2022/08/23 20:14:29;;;;;;;4.80;2.50;;;;;;;24.01;40.01;98919.53;5033162;28;20072;-65
2022/08/23 20:16:56;;;;;;;2.22;2.03;;;;;;;23.95;40.11;98917.94;5032285;28;20052;-66
2022/08/23 20:19:23;;;;;;;2.22;2.08;;;;;;;23.90;40.36;98918.75;5032784;28;20048;-66
2022/08/23 20:21:50;;;;;;;1.75;1.65;;;;;;;23.83;40.54;98920.94;5032947;28;20068;-67
2022/08/23 20:24:17;;;;;;;5.55;2.40;;;;;;;23.75;40.65;98923.41;5031919;28;20077;-66
2022/08/23 20:27:04;;;;;;;1.67;1.58;;;;;;;23.65;41.14;98922.38;5031157;28;20049;-66
2022/08/23 20:29:31;;;;;;;1.58;1.48;;;;;;;23.62;41.36;98924.78;5031805;28;20127;-66
2022/08/23 20:32:05;;;;;;;2.40;2.20;;;;;;;23.59;41.30;98922.63;5032615;28;20076;-65
2022/08/23 20:34:33;;;;;;;3.20;2.90;;;;;;;23.53;41.45;98923.72;5032835;28;20449;-66
2022/08/23 20:37:03;;;;;;;2.97;2.58;;;;;;;23.46;41.43;98932.09;5032574;28;20081;-66
2022/08/23 20:39:31;;;;;;;2.60;2.40;;;;;;;23.40;42.09;98925.91;5031284;28;20501;-66
2022/08/23 20:41:58;;;;;;;2.22;2.08;;;;;;;23.37;42.20;98929.16;5031362;28;20053;-66
2022/08/23 20:44:25;;;;;;;2.75;2.40;;;;;;;23.32;42.32;98931.88;5032642;28;20452;-66
2022/08/23 20:46:52;;;;;;;1.80;1.70;;;;;;;23.28;42.37;98930.00;5047228;28;20136;-66
2022/08/23 20:49:24;;;;;;;2.25;1.95;;;;;;;23.22;42.37;98924.59;5032926;28;20502;-65
2022/08/23 20:51:50;;;;;;;2.03;1.80;;;;;;;23.20;42.35;98929.47;5032638;28;20041;-66
2022/08/23 20:54:18;;;;;;;1.83;1.70;;;;;;;23.18;42.41;98930.81;5031273;28;20053;-66
2022/08/23 20:56:44;;;;;;;1.40;1.30;;;;;;;23.16;42.51;98935.66;5014432;28;20069;-66
2022/08/23 20:59:13;;;;;;;1.77;1.67;;;;;;;23.15;42.50;98937.56;5032550;28;20420;-66
2022/08/23 21:01:40;;;;;;;2.03;1.92;;;;;;;23.13;42.27;98941.59;5014786;28;20050;-67
2022/08/23 21:04:06;;;;;;;2.72;2.53;;;;;;;23.10;42.32;98940.25;5031005;28;20501;-67